sensor_id;sensor_type;location;lat;lon;timestamp;P1;durP1;ratioP1;P2;durP2;ratioP2
63690;SDS011;49837;57.280;27.070;2023-12-20T00:00:28;8.2;;;2.0;;
63690;SDS011;49837;57.280;27.070;2023-12-20T00:01:28;11.2;;;2.6;;
63690;SDS011;49837;57.280;27.070;2023-12-20T00:02:28;9.8;;;2.6;;
63690;SDS011;49837;57.280;27.070;2023-12-20T00:03:29;10.4;;;2.3;;
63690;SDS011;49837;57.280;27.070;2023-12-20T00:04:33;10.9;;;2.4;;
63690;SDS011;49837;57.280;27.070;2023-12-20T00:05:33;13.4;;;2.5;;
63690;SDS011;49837;57.280;27.070;2023-12-20T00:06:34;11.1;;;2.4;;
63690;SDS011;49837;57.280;27.070;2023-12-20T00:07:34;9.8;;;2.4;;
63690;SDS011;49837;57.280;27.070;2023-12-20T00:08:34;13.0;;;2.3;;
63690;SDS011;49837;57.280;27.070;2023-12-20T00:09:35;9.7;;;2.4;;
63690;SDS011;49837;57.280;27.070;2023-12-20T00:10:35;12.0;;;2.4;;
63690;SDS011;49837;57.280;27.070;2023-12-20T00:11:35;10.5;;;2.7;;
63690;SDS011;49837;57.280;27.070;2023-12-20T00:12:36;8.6;;;2.2;;
63690;SDS011;49837;57.280;27.070;2023-12-20T00:13:36;12.8;;;2.7;;
63690;SDS011;49837;57.280;27.070;2023-12-20T00:14:36;9.9;;;2.7;;
63690;SDS011;49837;57.280;27.070;2023-12-20T00:15:37;8.9;;;2.2;;
63690;SDS011;49837;57.280;27.070;2023-12-20T00:16:37;10.5;;;2.6;;
63690;SDS011;49837;57.280;27.070;2023-12-20T00:17:38;12.6;;;2.5;;
63690;SDS011;49837;57.280;27.070;2023-12-20T00:18:38;13.3;;;2.9;;
63690;SDS011;49837;57.280;27.070;2023-12-20T00:19:38;10.2;;;2.4;;
63690;SDS011;49837;57.280;27.070;2023-12-20T00:20:39;11.4;;;2.9;;
63690;SDS011;49837;57.280;27.070;2023-12-20T00:21:39;7.5;;;2.3;;
63690;SDS011;49837;57.280;27.070;2023-12-20T00:22:39;13.4;;;2.7;;
63690;SDS011;49837;57.280;27.070;2023-12-20T00:23:40;10.0;;;2.8;;
63690;SDS011;49837;57.280;27.070;2023-12-20T00:24:40;14.2;;;2.4;;
63690;SDS011;49837;57.280;27.070;2023-12-20T00:25:40;11.5;;;2.7;;
63690;SDS011;49837;57.280;27.070;2023-12-20T00:26:41;10.2;;;2.6;;
63690;SDS011;49837;57.280;27.070;2023-12-20T00:27:41;12.3;;;2.5;;
63690;SDS011;49837;57.280;27.070;2023-12-20T00:28:41;10.4;;;2.6;;
63690;SDS011;49837;57.280;27.070;2023-12-20T00:29:42;11.0;;;2.3;;
63690;SDS011;49837;57.280;27.070;2023-12-20T00:30:42;9.8;;;2.7;;
63690;SDS011;49837;57.280;27.070;2023-12-20T00:31:42;9.9;;;2.4;;
63690;SDS011;49837;57.280;27.070;2023-12-20T00:32:43;12.0;;;2.7;;
63690;SDS011;49837;57.280;27.070;2023-12-20T00:33:43;10.6;;;2.6;;
63690;SDS011;49837;57.280;27.070;2023-12-20T00:34:44;13.0;;;2.6;;
63690;SDS011;49837;57.280;27.070;2023-12-20T00:35:44;12.8;;;2.5;;
63690;SDS011;49837;57.280;27.070;2023-12-20T00:36:44;10.2;;;2.6;;
63690;SDS011;49837;57.280;27.070;2023-12-20T00:37:45;12.6;;;2.6;;
63690;SDS011;49837;57.280;27.070;2023-12-20T00:38:45;10.0;;;2.5;;
63690;SDS011;49837;57.280;27.070;2023-12-20T00:39:45;10.1;;;2.5;;
63690;SDS011;49837;57.280;27.070;2023-12-20T00:40:46;12.6;;;2.3;;
63690;SDS011;49837;57.280;27.070;2023-12-20T00:41:46;11.6;;;2.6;;
63690;SDS011;49837;57.280;27.070;2023-12-20T00:42:46;11.4;;;2.5;;
63690;SDS011;49837;57.280;27.070;2023-12-20T00:43:47;12.8;;;2.5;;
63690;SDS011;49837;57.280;27.070;2023-12-20T00:44:47;11.3;;;2.2;;
63690;SDS011;49837;57.280;27.070;2023-12-20T00:45:48;12.2;;;2.6;;
63690;SDS011;49837;57.280;27.070;2023-12-20T00:46:48;13.9;;;2.4;;
63690;SDS011;49837;57.280;27.070;2023-12-20T00:47:48;8.8;;;2.3;;
63690;SDS011;49837;57.280;27.070;2023-12-20T00:48:49;14.4;;;2.4;;
63690;SDS011;49837;57.280;27.070;2023-12-20T00:49:49;9.1;;;2.6;;
63690;SDS011;49837;57.280;27.070;2023-12-20T00:50:49;11.3;;;2.3;;
63690;SDS011;49837;57.280;27.070;2023-12-20T00:51:50;12.6;;;2.8;;
63690;SDS011;49837;57.280;27.070;2023-12-20T00:52:50;13.7;;;2.9;;
63690;SDS011;49837;57.280;27.070;2023-12-20T00:53:50;11.4;;;2.4;;
63690;SDS011;49837;57.280;27.070;2023-12-20T00:54:51;12.7;;;2.3;;
63690;SDS011;49837;57.280;27.070;2023-12-20T00:55:51;13.1;;;2.8;;
63690;SDS011;49837;57.280;27.070;2023-12-20T00:56:52;11.2;;;2.4;;
63690;SDS011;49837;57.280;27.070;2023-12-20T00:57:52;7.8;;;2.4;;
63690;SDS011;49837;57.280;27.070;2023-12-20T00:58:52;12.6;;;2.6;;
63690;SDS011;49837;57.280;27.070;2023-12-20T00:59:53;11.6;;;2.6;;
63690;SDS011;49837;57.280;27.070;2023-12-20T01:00:53;14.7;;;5.2;;
63690;SDS011;49837;57.280;27.070;2023-12-20T01:01:53;393.5;;;199.9;;
63690;SDS011;49837;57.280;27.070;2023-12-20T01:02:54;455.1;;;216.1;;
63690;SDS011;49837;57.280;27.070;2023-12-20T01:03:54;228.1;;;97.3;;
63690;SDS011;49837;57.280;27.070;2023-12-20T01:04:54;29.9;;;9.4;;
63690;SDS011;49837;57.280;27.070;2023-12-20T01:05:55;18.4;;;5.8;;
63690;SDS011;49837;57.280;27.070;2023-12-20T01:06:56;13.2;;;3.7;;
63690;SDS011;49837;57.280;27.070;2023-12-20T01:07:55;13.5;;;3.7;;
63690;SDS011;49837;57.280;27.070;2023-12-20T01:08:56;11.1;;;2.5;;
63690;SDS011;49837;57.280;27.070;2023-12-20T01:09:56;11.2;;;2.4;;
63690;SDS011;49837;57.280;27.070;2023-12-20T01:10:56;13.5;;;2.6;;
63690;SDS011;49837;57.280;27.070;2023-12-20T01:11:57;9.3;;;2.4;;
63690;SDS011;49837;57.280;27.070;2023-12-20T01:12:57;9.5;;;2.2;;
63690;SDS011;49837;57.280;27.070;2023-12-20T01:13:57;9.5;;;3.1;;
63690;SDS011;49837;57.280;27.070;2023-12-20T01:14:58;10.9;;;3.0;;
63690;SDS011;49837;57.280;27.070;2023-12-20T01:15:58;12.5;;;2.8;;
63690;SDS011;49837;57.280;27.070;2023-12-20T01:16:59;11.9;;;2.8;;
63690;SDS011;49837;57.280;27.070;2023-12-20T01:17:59;10.1;;;2.4;;
63690;SDS011;49837;57.280;27.070;2023-12-20T01:18:59;12.0;;;2.6;;
63690;SDS011;49837;57.280;27.070;2023-12-20T01:20:00;9.1;;;2.5;;
63690;SDS011;49837;57.280;27.070;2023-12-20T01:21:03;11.0;;;2.9;;
63690;SDS011;49837;57.280;27.070;2023-12-20T01:22:01;11.0;;;2.5;;
63690;SDS011;49837;57.280;27.070;2023-12-20T01:23:01;11.2;;;2.8;;
63690;SDS011;49837;57.280;27.070;2023-12-20T01:24:02;9.6;;;2.4;;
63690;SDS011;49837;57.280;27.070;2023-12-20T01:25:02;12.1;;;3.4;;
63690;SDS011;49837;57.280;27.070;2023-12-20T01:26:02;12.3;;;2.6;;
63690;SDS011;49837;57.280;27.070;2023-12-20T01:27:03;12.5;;;2.7;;
63690;SDS011;49837;57.280;27.070;2023-12-20T01:28:03;12.0;;;2.6;;
63690;SDS011;49837;57.280;27.070;2023-12-20T01:29:03;12.8;;;3.3;;
63690;SDS011;49837;57.280;27.070;2023-12-20T01:30:04;11.1;;;2.7;;
63690;SDS011;49837;57.280;27.070;2023-12-20T01:31:04;11.9;;;2.8;;
63690;SDS011;49837;57.280;27.070;2023-12-20T01:32:05;12.1;;;2.8;;
63690;SDS011;49837;57.280;27.070;2023-12-20T01:33:05;13.7;;;3.2;;
63690;SDS011;49837;57.280;27.070;2023-12-20T01:34:05;12.0;;;2.7;;
63690;SDS011;49837;57.280;27.070;2023-12-20T01:35:06;12.0;;;3.2;;
63690;SDS011;49837;57.280;27.070;2023-12-20T01:36:06;10.3;;;2.6;;
63690;SDS011;49837;57.280;27.070;2023-12-20T01:37:06;11.0;;;2.3;;
63690;SDS011;49837;57.280;27.070;2023-12-20T01:38:07;11.9;;;4.3;;
63690;SDS011;49837;57.280;27.070;2023-12-20T01:39:07;11.2;;;3.0;;
63690;SDS011;49837;57.280;27.070;2023-12-20T01:40:11;11.4;;;3.2;;
63690;SDS011;49837;57.280;27.070;2023-12-20T01:41:11;12.5;;;3.0;;
63690;SDS011;49837;57.280;27.070;2023-12-20T01:42:11;14.2;;;2.8;;
63690;SDS011;49837;57.280;27.070;2023-12-20T01:43:12;10.5;;;2.5;;
63690;SDS011;49837;57.280;27.070;2023-12-20T01:44:12;10.4;;;2.6;;
63690;SDS011;49837;57.280;27.070;2023-12-20T01:45:12;12.6;;;2.9;;
63690;SDS011;49837;57.280;27.070;2023-12-20T01:46:13;9.0;;;3.5;;
63690;SDS011;49837;57.280;27.070;2023-12-20T01:47:13;14.2;;;2.8;;
63690;SDS011;49837;57.280;27.070;2023-12-20T01:48:14;11.4;;;2.9;;
63690;SDS011;49837;57.280;27.070;2023-12-20T01:49:14;13.9;;;3.0;;
63690;SDS011;49837;57.280;27.070;2023-12-20T01:50:14;8.9;;;2.3;;
63690;SDS011;49837;57.280;27.070;2023-12-20T01:51:14;10.9;;;3.0;;
63690;SDS011;49837;57.280;27.070;2023-12-20T01:52:15;11.8;;;3.0;;
63690;SDS011;49837;57.280;27.070;2023-12-20T01:53:15;11.1;;;2.8;;
63690;SDS011;49837;57.280;27.070;2023-12-20T01:54:16;11.5;;;2.9;;
63690;SDS011;49837;57.280;27.070;2023-12-20T01:55:16;9.3;;;2.7;;
63690;SDS011;49837;57.280;27.070;2023-12-20T01:56:16;11.5;;;3.0;;
63690;SDS011;49837;57.280;27.070;2023-12-20T01:57:17;13.6;;;2.7;;
63690;SDS011;49837;57.280;27.070;2023-12-20T01:58:17;11.5;;;2.6;;
63690;SDS011;49837;57.280;27.070;2023-12-20T01:59:17;10.1;;;2.7;;
63690;SDS011;49837;57.280;27.070;2023-12-20T02:00:18;9.8;;;3.2;;
63690;SDS011;49837;57.280;27.070;2023-12-20T02:01:18;12.4;;;3.4;;
63690;SDS011;49837;57.280;27.070;2023-12-20T02:02:18;13.0;;;3.4;;
63690;SDS011;49837;57.280;27.070;2023-12-20T02:03:19;11.8;;;3.0;;
63690;SDS011;49837;57.280;27.070;2023-12-20T02:04:19;11.5;;;2.5;;
63690;SDS011;49837;57.280;27.070;2023-12-20T02:05:20;12.1;;;2.8;;
63690;SDS011;49837;57.280;27.070;2023-12-20T02:06:20;9.5;;;2.9;;
63690;SDS011;49837;57.280;27.070;2023-12-20T02:07:21;10.7;;;2.6;;
63690;SDS011;49837;57.280;27.070;2023-12-20T02:08:21;11.7;;;3.0;;
63690;SDS011;49837;57.280;27.070;2023-12-20T02:09:21;10.8;;;3.1;;
63690;SDS011;49837;57.280;27.070;2023-12-20T02:10:21;11.8;;;3.2;;
63690;SDS011;49837;57.280;27.070;2023-12-20T02:11:22;11.1;;;2.9;;
63690;SDS011;49837;57.280;27.070;2023-12-20T02:12:22;7.7;;;2.2;;
63690;SDS011;49837;57.280;27.070;2023-12-20T02:13:22;13.0;;;2.7;;
63690;SDS011;49837;57.280;27.070;2023-12-20T02:14:23;8.1;;;2.8;;
63690;SDS011;49837;57.280;27.070;2023-12-20T02:15:23;10.8;;;2.4;;
63690;SDS011;49837;57.280;27.070;2023-12-20T02:16:23;8.4;;;2.2;;
63690;SDS011;49837;57.280;27.070;2023-12-20T02:17:24;11.1;;;2.4;;
63690;SDS011;49837;57.280;27.070;2023-12-20T02:18:24;11.9;;;2.8;;
63690;SDS011;49837;57.280;27.070;2023-12-20T02:19:25;11.2;;;2.7;;
63690;SDS011;49837;57.280;27.070;2023-12-20T02:20:25;11.9;;;2.5;;
63690;SDS011;49837;57.280;27.070;2023-12-20T02:21:31;14.3;;;2.4;;
63690;SDS011;49837;57.280;27.070;2023-12-20T02:22:29;12.0;;;3.0;;
63690;SDS011;49837;57.280;27.070;2023-12-20T02:23:29;9.8;;;2.4;;
63690;SDS011;49837;57.280;27.070;2023-12-20T02:24:29;12.9;;;3.0;;
63690;SDS011;49837;57.280;27.070;2023-12-20T02:25:30;11.0;;;2.4;;
63690;SDS011;49837;57.280;27.070;2023-12-20T02:26:31;14.7;;;2.6;;
63690;SDS011;49837;57.280;27.070;2023-12-20T02:27:31;10.2;;;2.3;;
63690;SDS011;49837;57.280;27.070;2023-12-20T02:28:31;10.4;;;2.5;;
63690;SDS011;49837;57.280;27.070;2023-12-20T02:29:32;11.9;;;2.7;;
63690;SDS011;49837;57.280;27.070;2023-12-20T02:30:32;12.1;;;2.4;;
63690;SDS011;49837;57.280;27.070;2023-12-20T02:31:33;10.7;;;2.3;;
63690;SDS011;49837;57.280;27.070;2023-12-20T02:32:33;11.4;;;2.6;;
63690;SDS011;49837;57.280;27.070;2023-12-20T02:33:33;8.1;;;2.2;;
63690;SDS011;49837;57.280;27.070;2023-12-20T02:34:34;15.3;;;3.2;;
63690;SDS011;49837;57.280;27.070;2023-12-20T02:35:34;11.7;;;2.7;;
63690;SDS011;49837;57.280;27.070;2023-12-20T02:36:34;13.6;;;3.1;;
63690;SDS011;49837;57.280;27.070;2023-12-20T02:37:35;10.6;;;2.4;;
63690;SDS011;49837;57.280;27.070;2023-12-20T02:38:35;9.8;;;2.8;;
63690;SDS011;49837;57.280;27.070;2023-12-20T02:39:35;12.4;;;2.6;;
63690;SDS011;49837;57.280;27.070;2023-12-20T02:40:36;8.9;;;2.1;;
63690;SDS011;49837;57.280;27.070;2023-12-20T02:41:36;10.9;;;2.7;;
63690;SDS011;49837;57.280;27.070;2023-12-20T02:42:37;12.4;;;3.0;;
63690;SDS011;49837;57.280;27.070;2023-12-20T02:43:37;13.7;;;2.6;;
63690;SDS011;49837;57.280;27.070;2023-12-20T02:44:37;9.5;;;2.5;;
63690;SDS011;49837;57.280;27.070;2023-12-20T02:45:38;13.0;;;2.7;;
63690;SDS011;49837;57.280;27.070;2023-12-20T02:46:38;9.9;;;2.3;;
63690;SDS011;49837;57.280;27.070;2023-12-20T02:47:38;11.5;;;2.7;;
63690;SDS011;49837;57.280;27.070;2023-12-20T02:48:39;14.8;;;2.8;;
63690;SDS011;49837;57.280;27.070;2023-12-20T02:49:39;10.4;;;2.2;;
63690;SDS011;49837;57.280;27.070;2023-12-20T02:50:40;12.6;;;2.6;;
63690;SDS011;49837;57.280;27.070;2023-12-20T02:51:40;12.3;;;2.4;;
63690;SDS011;49837;57.280;27.070;2023-12-20T02:52:40;13.1;;;2.7;;
63690;SDS011;49837;57.280;27.070;2023-12-20T02:53:41;9.8;;;2.4;;
63690;SDS011;49837;57.280;27.070;2023-12-20T02:54:41;10.7;;;2.4;;
63690;SDS011;49837;57.280;27.070;2023-12-20T02:55:41;11.7;;;2.2;;
63690;SDS011;49837;57.280;27.070;2023-12-20T02:56:42;11.3;;;2.5;;
63690;SDS011;49837;57.280;27.070;2023-12-20T02:57:42;12.2;;;2.8;;
63690;SDS011;49837;57.280;27.070;2023-12-20T02:58:42;10.4;;;2.1;;
63690;SDS011;49837;57.280;27.070;2023-12-20T02:59:43;11.6;;;2.7;;
63690;SDS011;49837;57.280;27.070;2023-12-20T03:00:43;10.4;;;2.0;;
63690;SDS011;49837;57.280;27.070;2023-12-20T03:01:44;11.3;;;2.5;;
63690;SDS011;49837;57.280;27.070;2023-12-20T03:02:44;13.0;;;2.6;;
63690;SDS011;49837;57.280;27.070;2023-12-20T03:03:44;12.0;;;2.5;;
63690;SDS011;49837;57.280;27.070;2023-12-20T03:04:45;9.3;;;2.3;;
63690;SDS011;49837;57.280;27.070;2023-12-20T03:05:45;11.3;;;2.4;;
63690;SDS011;49837;57.280;27.070;2023-12-20T03:06:45;10.4;;;2.4;;
63690;SDS011;49837;57.280;27.070;2023-12-20T03:07:46;11.2;;;2.0;;
63690;SDS011;49837;57.280;27.070;2023-12-20T03:08:46;11.1;;;2.3;;
63690;SDS011;49837;57.280;27.070;2023-12-20T03:09:46;9.7;;;2.6;;
63690;SDS011;49837;57.280;27.070;2023-12-20T03:10:49;13.1;;;2.5;;
63690;SDS011;49837;57.280;27.070;2023-12-20T03:11:49;11.0;;;2.3;;
63690;SDS011;49837;57.280;27.070;2023-12-20T03:12:49;10.3;;;2.2;;
63690;SDS011;49837;57.280;27.070;2023-12-20T03:13:50;11.6;;;2.5;;
63690;SDS011;49837;57.280;27.070;2023-12-20T03:14:50;9.3;;;2.3;;
63690;SDS011;49837;57.280;27.070;2023-12-20T03:15:50;9.9;;;2.3;;
63690;SDS011;49837;57.280;27.070;2023-12-20T03:16:51;10.4;;;2.2;;
63690;SDS011;49837;57.280;27.070;2023-12-20T03:17:51;11.4;;;2.5;;
63690;SDS011;49837;57.280;27.070;2023-12-20T03:18:52;10.3;;;2.6;;
63690;SDS011;49837;57.280;27.070;2023-12-20T03:19:52;13.3;;;2.9;;
63690;SDS011;49837;57.280;27.070;2023-12-20T03:20:52;10.8;;;2.6;;
63690;SDS011;49837;57.280;27.070;2023-12-20T03:21:53;12.1;;;2.5;;
63690;SDS011;49837;57.280;27.070;2023-12-20T03:22:53;10.8;;;2.5;;
63690;SDS011;49837;57.280;27.070;2023-12-20T03:23:53;9.9;;;2.2;;
63690;SDS011;49837;57.280;27.070;2023-12-20T03:24:54;9.6;;;2.5;;
63690;SDS011;49837;57.280;27.070;2023-12-20T03:25:54;13.3;;;2.5;;
63690;SDS011;49837;57.280;27.070;2023-12-20T03:26:54;11.2;;;2.3;;
63690;SDS011;49837;57.280;27.070;2023-12-20T03:27:55;11.8;;;2.0;;
63690;SDS011;49837;57.280;27.070;2023-12-20T03:28:55;12.1;;;3.0;;
63690;SDS011;49837;57.280;27.070;2023-12-20T03:29:55;10.1;;;2.1;;
63690;SDS011;49837;57.280;27.070;2023-12-20T03:30:56;11.8;;;2.6;;
63690;SDS011;49837;57.280;27.070;2023-12-20T03:31:56;11.8;;;2.3;;
63690;SDS011;49837;57.280;27.070;2023-12-20T03:32:57;9.1;;;2.3;;
63690;SDS011;49837;57.280;27.070;2023-12-20T03:33:57;6.9;;;1.9;;
63690;SDS011;49837;57.280;27.070;2023-12-20T03:34:57;8.2;;;2.6;;
63690;SDS011;49837;57.280;27.070;2023-12-20T03:35:58;12.6;;;2.6;;
63690;SDS011;49837;57.280;27.070;2023-12-20T03:36:58;21.6;;;8.9;;
63690;SDS011;49837;57.280;27.070;2023-12-20T03:37:58;131.4;;;56.8;;
63690;SDS011;49837;57.280;27.070;2023-12-20T03:38:59;140.6;;;52.9;;
63690;SDS011;49837;57.280;27.070;2023-12-20T03:39:59;35.5;;;11.4;;
63690;SDS011;49837;57.280;27.070;2023-12-20T03:40:59;23.7;;;7.6;;
63690;SDS011;49837;57.280;27.070;2023-12-20T03:42:00;13.3;;;3.0;;
63690;SDS011;49837;57.280;27.070;2023-12-20T03:43:00;12.7;;;2.4;;
63690;SDS011;49837;57.280;27.070;2023-12-20T03:44:00;11.0;;;2.4;;
63690;SDS011;49837;57.280;27.070;2023-12-20T03:45:01;15.4;;;3.0;;
63690;SDS011;49837;57.280;27.070;2023-12-20T03:46:01;11.0;;;2.4;;
63690;SDS011;49837;57.280;27.070;2023-12-20T03:47:02;11.7;;;2.7;;
63690;SDS011;49837;57.280;27.070;2023-12-20T03:48:02;11.9;;;2.5;;
63690;SDS011;49837;57.280;27.070;2023-12-20T03:49:02;13.9;;;2.8;;
63690;SDS011;49837;57.280;27.070;2023-12-20T03:50:03;11.8;;;2.7;;
63690;SDS011;49837;57.280;27.070;2023-12-20T03:51:03;14.4;;;4.1;;
63690;SDS011;49837;57.280;27.070;2023-12-20T03:52:04;14.1;;;3.3;;
63690;SDS011;49837;57.280;27.070;2023-12-20T03:53:04;11.9;;;3.2;;
63690;SDS011;49837;57.280;27.070;2023-12-20T03:54:04;13.8;;;3.3;;
63690;SDS011;49837;57.280;27.070;2023-12-20T03:55:05;11.6;;;3.5;;
63690;SDS011;49837;57.280;27.070;2023-12-20T03:56:05;12.7;;;3.6;;
63690;SDS011;49837;57.280;27.070;2023-12-20T03:57:05;9.4;;;2.7;;
63690;SDS011;49837;57.280;27.070;2023-12-20T03:58:06;10.3;;;3.5;;
63690;SDS011;49837;57.280;27.070;2023-12-20T03:59:06;12.8;;;3.7;;
63690;SDS011;49837;57.280;27.070;2023-12-20T04:00:09;12.3;;;3.4;;
63690;SDS011;49837;57.280;27.070;2023-12-20T04:01:10;10.4;;;3.7;;
63690;SDS011;49837;57.280;27.070;2023-12-20T04:02:08;11.8;;;2.8;;
63690;SDS011;49837;57.280;27.070;2023-12-20T04:03:08;11.8;;;3.0;;
63690;SDS011;49837;57.280;27.070;2023-12-20T04:04:09;11.4;;;3.4;;
63690;SDS011;49837;57.280;27.070;2023-12-20T04:05:09;12.6;;;2.9;;
63690;SDS011;49837;57.280;27.070;2023-12-20T04:06:09;13.9;;;4.2;;
63690;SDS011;49837;57.280;27.070;2023-12-20T04:07:10;10.5;;;3.2;;
63690;SDS011;49837;57.280;27.070;2023-12-20T04:08:11;14.0;;;3.1;;
63690;SDS011;49837;57.280;27.070;2023-12-20T04:09:10;14.1;;;3.2;;
63690;SDS011;49837;57.280;27.070;2023-12-20T04:10:11;15.2;;;4.4;;
63690;SDS011;49837;57.280;27.070;2023-12-20T04:11:11;11.1;;;3.2;;
63690;SDS011;49837;57.280;27.070;2023-12-20T04:12:12;13.9;;;3.5;;
63690;SDS011;49837;57.280;27.070;2023-12-20T04:13:12;13.2;;;3.1;;
63690;SDS011;49837;57.280;27.070;2023-12-20T04:14:12;12.6;;;3.3;;
63690;SDS011;49837;57.280;27.070;2023-12-20T04:15:13;15.5;;;3.2;;
63690;SDS011;49837;57.280;27.070;2023-12-20T04:16:13;13.3;;;2.8;;
63690;SDS011;49837;57.280;27.070;2023-12-20T04:17:14;12.3;;;3.5;;
63690;SDS011;49837;57.280;27.070;2023-12-20T04:18:14;9.9;;;3.1;;
63690;SDS011;49837;57.280;27.070;2023-12-20T04:19:14;13.7;;;3.2;;
63690;SDS011;49837;57.280;27.070;2023-12-20T04:20:14;13.8;;;3.2;;
63690;SDS011;49837;57.280;27.070;2023-12-20T04:21:15;12.5;;;3.5;;
63690;SDS011;49837;57.280;27.070;2023-12-20T04:22:15;10.1;;;2.9;;
63690;SDS011;49837;57.280;27.070;2023-12-20T04:23:15;10.5;;;2.9;;
63690;SDS011;49837;57.280;27.070;2023-12-20T04:24:16;14.1;;;3.4;;
63690;SDS011;49837;57.280;27.070;2023-12-20T04:25:16;12.2;;;2.7;;
63690;SDS011;49837;57.280;27.070;2023-12-20T04:26:17;10.0;;;2.6;;
63690;SDS011;49837;57.280;27.070;2023-12-20T04:27:17;11.9;;;3.1;;
63690;SDS011;49837;57.280;27.070;2023-12-20T04:28:17;12.2;;;3.2;;
63690;SDS011;49837;57.280;27.070;2023-12-20T04:29:18;16.1;;;4.5;;
63690;SDS011;49837;57.280;27.070;2023-12-20T04:30:18;16.6;;;5.8;;
63690;SDS011;49837;57.280;27.070;2023-12-20T04:31:18;14.1;;;3.2;;
63690;SDS011;49837;57.280;27.070;2023-12-20T04:32:19;14.8;;;4.9;;
63690;SDS011;49837;57.280;27.070;2023-12-20T04:33:19;13.9;;;3.6;;
63690;SDS011;49837;57.280;27.070;2023-12-20T04:34:19;13.0;;;3.3;;
63690;SDS011;49837;57.280;27.070;2023-12-20T04:35:20;11.1;;;2.9;;
63690;SDS011;49837;57.280;27.070;2023-12-20T04:36:20;10.2;;;3.2;;
63690;SDS011;49837;57.280;27.070;2023-12-20T04:37:20;10.7;;;3.0;;
63690;SDS011;49837;57.280;27.070;2023-12-20T04:38:21;13.0;;;3.4;;
63690;SDS011;49837;57.280;27.070;2023-12-20T04:39:21;13.6;;;3.5;;
63690;SDS011;49837;57.280;27.070;2023-12-20T04:40:22;10.8;;;2.9;;
63690;SDS011;49837;57.280;27.070;2023-12-20T04:41:22;13.2;;;3.3;;
63690;SDS011;49837;57.280;27.070;2023-12-20T04:42:22;9.3;;;2.4;;
63690;SDS011;49837;57.280;27.070;2023-12-20T04:43:23;11.3;;;3.6;;
63690;SDS011;49837;57.280;27.070;2023-12-20T04:44:23;11.1;;;2.6;;
63690;SDS011;49837;57.280;27.070;2023-12-20T04:45:23;13.8;;;2.7;;
63690;SDS011;49837;57.280;27.070;2023-12-20T04:46:24;12.5;;;3.3;;
63690;SDS011;49837;57.280;27.070;2023-12-20T04:47:24;17.6;;;2.9;;
63690;SDS011;49837;57.280;27.070;2023-12-20T04:48:24;11.9;;;2.9;;
63690;SDS011;49837;57.280;27.070;2023-12-20T04:49:25;14.7;;;3.1;;
63690;SDS011;49837;57.280;27.070;2023-12-20T04:50:25;10.0;;;2.8;;
63690;SDS011;49837;57.280;27.070;2023-12-20T04:51:25;13.4;;;2.9;;
63690;SDS011;49837;57.280;27.070;2023-12-20T04:52:26;11.8;;;2.9;;
63690;SDS011;49837;57.280;27.070;2023-12-20T04:53:26;12.4;;;2.8;;
63690;SDS011;49837;57.280;27.070;2023-12-20T04:54:26;14.2;;;3.1;;
63690;SDS011;49837;57.280;27.070;2023-12-20T04:55:27;14.3;;;2.8;;
63690;SDS011;49837;57.280;27.070;2023-12-20T04:56:27;11.3;;;2.8;;
63690;SDS011;49837;57.280;27.070;2023-12-20T04:57:27;15.6;;;3.3;;
63690;SDS011;49837;57.280;27.070;2023-12-20T04:58:28;10.0;;;2.7;;
63690;SDS011;49837;57.280;27.070;2023-12-20T04:59:28;14.7;;;2.4;;
63690;SDS011;49837;57.280;27.070;2023-12-20T05:00:29;11.2;;;2.6;;
63690;SDS011;49837;57.280;27.070;2023-12-20T05:01:29;12.7;;;2.3;;
63690;SDS011;49837;57.280;27.070;2023-12-20T05:02:29;15.1;;;2.9;;
63690;SDS011;49837;57.280;27.070;2023-12-20T05:03:30;10.1;;;2.2;;
63690;SDS011;49837;57.280;27.070;2023-12-20T05:04:30;10.7;;;2.4;;
63690;SDS011;49837;57.280;27.070;2023-12-20T05:05:30;12.0;;;2.3;;
63690;SDS011;49837;57.280;27.070;2023-12-20T05:06:31;13.8;;;2.5;;
63690;SDS011;49837;57.280;27.070;2023-12-20T05:07:31;13.5;;;2.9;;
63690;SDS011;49837;57.280;27.070;2023-12-20T05:08:32;16.9;;;4.1;;
63690;SDS011;49837;57.280;27.070;2023-12-20T05:09:32;13.7;;;3.9;;
63690;SDS011;49837;57.280;27.070;2023-12-20T05:10:32;16.3;;;6.0;;
63690;SDS011;49837;57.280;27.070;2023-12-20T05:11:32;12.1;;;3.3;;
63690;SDS011;49837;57.280;27.070;2023-12-20T05:12:33;11.1;;;2.4;;
63690;SDS011;49837;57.280;27.070;2023-12-20T05:13:33;12.0;;;2.3;;
63690;SDS011;49837;57.280;27.070;2023-12-20T05:14:38;12.2;;;2.6;;
63690;SDS011;49837;57.280;27.070;2023-12-20T05:15:38;13.5;;;2.8;;
63690;SDS011;49837;57.280;27.070;2023-12-20T05:16:39;12.9;;;2.5;;
63690;SDS011;49837;57.280;27.070;2023-12-20T05:17:39;11.9;;;2.4;;
63690;SDS011;49837;57.280;27.070;2023-12-20T05:18:39;11.0;;;2.6;;
63690;SDS011;49837;57.280;27.070;2023-12-20T05:19:40;12.1;;;2.2;;
63690;SDS011;49837;57.280;27.070;2023-12-20T05:20:40;14.5;;;2.9;;
63690;SDS011;49837;57.280;27.070;2023-12-20T05:21:40;10.9;;;2.3;;
63690;SDS011;49837;57.280;27.070;2023-12-20T05:22:41;11.2;;;2.2;;
63690;SDS011;49837;57.280;27.070;2023-12-20T05:23:41;17.0;;;2.7;;
63690;SDS011;49837;57.280;27.070;2023-12-20T05:24:42;11.5;;;2.7;;
63690;SDS011;49837;57.280;27.070;2023-12-20T05:25:42;14.1;;;2.9;;
63690;SDS011;49837;57.280;27.070;2023-12-20T05:26:42;12.1;;;2.3;;
63690;SDS011;49837;57.280;27.070;2023-12-20T05:27:43;10.3;;;2.5;;
63690;SDS011;49837;57.280;27.070;2023-12-20T05:28:43;10.0;;;2.5;;
63690;SDS011;49837;57.280;27.070;2023-12-20T05:29:43;8.8;;;2.3;;
63690;SDS011;49837;57.280;27.070;2023-12-20T05:30:44;16.5;;;2.5;;
63690;SDS011;49837;57.280;27.070;2023-12-20T05:31:44;11.3;;;2.7;;
63690;SDS011;49837;57.280;27.070;2023-12-20T05:32:44;12.8;;;2.5;;
63690;SDS011;49837;57.280;27.070;2023-12-20T05:33:45;12.8;;;2.6;;
63690;SDS011;49837;57.280;27.070;2023-12-20T05:34:45;8.8;;;2.3;;
63690;SDS011;49837;57.280;27.070;2023-12-20T05:35:45;11.0;;;2.4;;
63690;SDS011;49837;57.280;27.070;2023-12-20T05:36:46;12.9;;;2.2;;
63690;SDS011;49837;57.280;27.070;2023-12-20T05:37:46;14.8;;;2.6;;
63690;SDS011;49837;57.280;27.070;2023-12-20T05:38:46;12.9;;;2.6;;
63690;SDS011;49837;57.280;27.070;2023-12-20T05:39:47;14.3;;;2.9;;
63690;SDS011;49837;57.280;27.070;2023-12-20T05:40:47;10.3;;;2.6;;
63690;SDS011;49837;57.280;27.070;2023-12-20T05:41:47;14.8;;;2.8;;
63690;SDS011;49837;57.280;27.070;2023-12-20T05:42:48;10.5;;;2.3;;
63690;SDS011;49837;57.280;27.070;2023-12-20T05:43:48;11.1;;;3.1;;
63690;SDS011;49837;57.280;27.070;2023-12-20T05:44:48;9.4;;;2.4;;
63690;SDS011;49837;57.280;27.070;2023-12-20T05:45:50;14.4;;;2.9;;
63690;SDS011;49837;57.280;27.070;2023-12-20T05:46:50;15.7;;;2.7;;
63690;SDS011;49837;57.280;27.070;2023-12-20T05:47:50;13.1;;;2.8;;
63690;SDS011;49837;57.280;27.070;2023-12-20T05:48:51;12.2;;;2.6;;
63690;SDS011;49837;57.280;27.070;2023-12-20T05:49:51;8.8;;;2.4;;
63690;SDS011;49837;57.280;27.070;2023-12-20T05:50:51;14.1;;;2.9;;
63690;SDS011;49837;57.280;27.070;2023-12-20T05:51:52;12.5;;;2.4;;
63690;SDS011;49837;57.280;27.070;2023-12-20T05:52:52;11.8;;;2.6;;
63690;SDS011;49837;57.280;27.070;2023-12-20T05:53:52;16.2;;;2.9;;
63690;SDS011;49837;57.280;27.070;2023-12-20T05:54:53;12.0;;;2.3;;
63690;SDS011;49837;57.280;27.070;2023-12-20T05:55:53;12.7;;;2.0;;
63690;SDS011;49837;57.280;27.070;2023-12-20T05:56:53;12.6;;;2.3;;
63690;SDS011;49837;57.280;27.070;2023-12-20T05:57:54;10.6;;;2.4;;
63690;SDS011;49837;57.280;27.070;2023-12-20T05:58:54;11.6;;;2.4;;
63690;SDS011;49837;57.280;27.070;2023-12-20T05:59:55;10.2;;;2.3;;
63690;SDS011;49837;57.280;27.070;2023-12-20T06:00:55;12.3;;;2.4;;
63690;SDS011;49837;57.280;27.070;2023-12-20T06:01:55;12.0;;;2.8;;
63690;SDS011;49837;57.280;27.070;2023-12-20T06:02:56;12.2;;;2.3;;
63690;SDS011;49837;57.280;27.070;2023-12-20T06:03:56;10.7;;;2.6;;